MUHA/HAV METAR and TAF weather

Enter ICAO airport designator
Station Type Date Time Source
MUHA METAR 2019/06/16 03:55 UTC NOAA

MUHA 160355Z 09004KT 9000 FEW030 SCT100 25/24 Q1017


Station Type Date Time Source
MUHA Decoded METAR 2019/06/16 03:55 UTC NOAA

Aeropuerto Jose Marti, Rancho-Boyeros, Habana, Cuba (MUHA) 22-59N 082-24W 75M
Jun 15, 2019 - 11:55 PM EDT / 2019.06.16 0355 UTC
Wind: from the E (090 degrees) at 5 MPH (4 KT):0
Visibility: 5 mile(s):0
Sky conditions: partly cloudy
Temperature: 77 F (25 C)
Dew Point: 75 F (24 C)
Relative Humidity: 94%
Pressure (altimeter): 30.03 in. Hg (1017 hPa)
ob: MUHA 160355Z 09004KT 9000 FEW030 SCT100 25/24 Q1017
cycle: 4

Station Type Date Time Source
MUHA TAF 2019/06/15 18:03 UTC NOAA

TAF MUHA 151700Z 1518/1618 08010KT 9000 BKN030
TEMPO 1519/1600 VRB10KT 5000 TSRA FEW020CB
BECMG 1604/1606 VRB03KT FEW030
BECMG 1615/1617 16010KT SCT030

Example: see airport list